CheckWX is a tool to help pilots better visualize weather data.  It is not intended as a substitute for an official pre-flight weather briefing.

22:59:31 UTC

KFFO TAF
Wright-Patterson AFB Airport
Dayton, Ohio, USA
TAF KFFO 311900Z 3119/0201 05006KT 9999 OVC025 QNH2985INS BECMG 3123/3124 05006KT 9999 OVC015 QNH2986INS BECMG 0102/0103 01009KT 8000 -DZ BR BKN008 OVC015 QNH2988INS BECMG 0114/0115 35012KT 9999 NSW BKN010 OVC025 QNH2999INS BECMG 0117/0118 35006KT 9999 OVC025 QNH3000INS TX10/0119Z TN03/0111Z

Mar-31@
19:00 UTC

Mar-31 @ 19:00 UTC

Mar-31@
23:00 UTC

Mar-31 @ 23:00 UTC

TAF KFFO 311900Z 3119/0201 05006KT 9999 OVC025 QNH2985INS
Wind
  • 050° at 6 KTS
Cloud Levels
  • Overcast at 2,500' AGL

Mar-31@
23:00 UTC

Mar-31 @ 23:00 UTC

Apr-1@
02:00 UTC

Apr-1 @ 02:00 UTC

BECMG 3123/3124 05006KT 9999 OVC015 QNH2986INS

Becoming

Becoming Conditions expected by Wed, Apr 1, 2020 @ 00:00 UTC

Wind
  • 050° at 6 KTS
Cloud Levels
  • Overcast at 1,500' AGL

Apr-1@
02:00 UTC

Apr-1 @ 02:00 UTC

Apr-1@
14:00 UTC

Apr-1 @ 14:00 UTC

BECMG 0102/0103 01009KT 8000 -DZ BR BKN008 OVC015 QNH2988INS

Becoming

Becoming Conditions expected by Wed, Apr 1, 2020 @ 03:00 UTC

Wind
  • 010° at 9 KTS
Conditions
Light Drizzle, Mist
Cloud Levels
  • Broken at 800' AGL
  • Overcast at 1,500' AGL

Apr-1@
14:00 UTC

Apr-1 @ 14:00 UTC

Apr-1@
17:00 UTC

Apr-1 @ 17:00 UTC

BECMG 0114/0115 35012KT 9999 NSW BKN010 OVC025 QNH2999INS

Becoming

Becoming Conditions expected by Wed, Apr 1, 2020 @ 15:00 UTC

Wind
  • 350° at 12 KTS
Conditions
No significant weather
Cloud Levels
  • Broken at 1,000' AGL
  • Overcast at 2,500' AGL

Apr-1@
17:00 UTC

Apr-1 @ 17:00 UTC

Apr-2@
01:00 UTC

Apr-2 @ 01:00 UTC

BECMG 0117/0118 35006KT 9999 OVC025 QNH3000INS TX10/0119Z TN03/0111Z

Becoming

Becoming Conditions expected by Wed, Apr 1, 2020 @ 18:00 UTC

Wind
  • 350° at 6 KTS
Conditions
No significant weather
Cloud Levels
  • Overcast at 2,500' AGL